2003 LUPIT (2003319N13172)


On this page: IBTrACS data - Map and Plots - Positions - Intensities - Original source data

Summary

Start Nov 14
End Dec 3
Basin WP
LMI 145 kt
Sources jtwc_wp
tokyo
cma
hko
In WMO? Yes
Previous storm 2003 NEPARTAK (WP)
Previous in basin 2003 NEPARTAK (WP)
Concurrent storms 2004 BENI (SI)
2003 MISSING (NI)
2003 NEPARTAK (WP)
2003 LUPIT (WP)
Next in basin Missing
Next storm 2004 CELA (SI)

top of page IBTrACS Data: File Access

top of page HURSAT Data: File Access

Image of storm

top of page Plots:

Map of storm track will not appear if FTP is down
Time series of cyclone Maximum Sustained Wind will not appear if FTP is down
Time series of cyclone Minimum Central Pressure will not appear if FTP is down

top of page Track Data:Position

jtwc_wp tokyo cma hko
Date Lat Lon Lat Lon Lat Lon Lat Lon
2003-11-14 12:00:00 12.8 172.3
2003-11-14 18:00:00 13.3 171.9
2003-11-15 00:00:00 13.7 171.5
2003-11-15 06:00:00 14.0 171.1
2003-11-15 12:00:00 14.2 170.6
2003-11-15 18:00:00 14.2 170.0
2003-11-16 00:00:00 14.2 169.2
2003-11-16 06:00:00 14.2 168.4
2003-11-16 12:00:00 13.9 167.6
2003-11-16 18:00:00 13.3 167.2
2003-11-17 00:00:00 12.7 167.0
2003-11-17 06:00:00 12.1 166.9
2003-11-17 12:00:00 11.5 166.8
2003-11-17 18:00:00 11.0 166.4
2003-11-18 00:00:00 10.9 165.7
2003-11-18 06:00:00 10.9 165.1
2003-11-18 12:00:00 10.9 164.4 9.5 164.5 9.5 164.5
2003-11-18 18:00:00 10.9 163.7 9.0 163.8 9.0 163.8
2003-11-19 00:00:00 10.6 163.1 9.0 163.6 9.0 163.6
2003-11-19 06:00:00 10.0 162.7 8.9 163.2 8.9 163.2
2003-11-19 12:00:00 9.5 162.3 8.8 162.6 8.8 162.6 8.8 163.6
2003-11-19 18:00:00 9.1 162.0 8.8 162.2 8.8 162.2 8.8 163.0
2003-11-20 00:00:00 9.0 161.6 8.9 162.0 8.9 161.8 8.9 161.9
2003-11-20 06:00:00 8.9 161.2 8.9 160.9 8.9 161.2 8.9 161.3
2003-11-20 12:00:00 8.9 160.8 8.8 160.5 8.9 160.6 8.8 160.6
jtwc_wp tokyo cma hko
2003-11-20 18:00:00 8.9 160.2 8.7 160.2 8.8 160.2 8.7 160.2
2003-11-21 00:00:00 9.0 159.4 8.6 159.7 8.7 159.7 8.7 159.8
2003-11-21 06:00:00 9.1 158.2 8.8 158.5 8.8 158.5 8.7 158.5
2003-11-21 12:00:00 9.0 156.8 8.9 156.7 8.8 156.7 8.7 156.8
2003-11-21 18:00:00 8.8 155.4 8.6 154.9 8.6 154.9 8.5 155.1
2003-11-22 00:00:00 8.8 153.9 8.5 153.6 8.7 153.6 8.6 153.6
2003-11-22 06:00:00 8.8 152.3 8.7 152.1 8.8 152.1 8.8 152.2
2003-11-22 12:00:00 8.8 150.7 8.8 150.6 8.8 150.6 8.8 150.3
2003-11-22 18:00:00 8.8 149.1 8.4 149.5 8.4 149.5 8.9 148.9
2003-11-23 00:00:00 8.2 147.8 8.0 148.2 8.0 148.2 8.2 147.6
2003-11-23 06:00:00 7.9 146.6 8.1 147.1 8.1 146.6 8.0 146.8
2003-11-23 12:00:00 7.8 145.5 8.0 145.7 8.0 145.7 7.9 145.5
2003-11-23 18:00:00 7.8 144.5 7.7 144.5 7.9 144.5 7.7 144.5
2003-11-24 00:00:00 8.1 143.8 7.8 144.1 7.8 144.0 7.7 144.0
2003-11-24 06:00:00 8.5 143.1 8.5 143.5 8.5 143.3 8.5 143.3
2003-11-24 12:00:00 9.1 142.2 9.0 142.6 9.1 142.4 9.0 142.5
2003-11-24 18:00:00 9.9 141.1 9.9 141.7 9.9 141.5 9.9 141.4
2003-11-25 00:00:00 10.7 139.9 10.4 140.4 10.5 140.4 10.5 140.3
2003-11-25 06:00:00 11.4 138.7 11.4 138.8 11.4 138.8 11.4 138.8
2003-11-25 12:00:00 12.0 137.7 11.8 137.7 11.8 137.8 11.7 137.7
2003-11-25 18:00:00 12.2 137.1 12.2 137.1 12.2 137.1 12.1 137.1
2003-11-26 00:00:00 12.6 136.7 12.6 136.8 12.5 136.7 12.5 136.7
2003-11-26 06:00:00 13.1 136.3 13.1 136.6 13.0 136.4 13.0 136.3
2003-11-26 12:00:00 13.6 136.0 13.5 136.0 13.5 135.9 13.5 136.0
jtwc_wp tokyo cma hko
2003-11-26 18:00:00 13.8 135.4 13.9 135.4 13.9 135.4 13.9 135.4
2003-11-27 00:00:00 14.1 134.9 14.0 134.9 14.1 134.9 14.0 134.9
2003-11-27 06:00:00 14.5 134.3 14.4 134.5 14.5 134.4 14.5 134.4
2003-11-27 12:00:00 15.0 133.8 14.9 133.9 14.8 133.8 14.9 133.8
2003-11-27 18:00:00 15.3 133.2 15.2 133.4 15.2 133.2 15.2 133.3
2003-11-28 00:00:00 15.6 132.8 15.5 133.0 15.5 132.9 15.5 132.9
2003-11-28 06:00:00 16.4 132.3 16.1 132.6 16.1 132.4 16.1 132.5
2003-11-28 12:00:00 17.1 131.9 16.8 132.0 16.8 131.8 16.8 131.9
2003-11-28 18:00:00 17.7 131.3 17.6 131.5 17.6 131.3 17.6 131.4
2003-11-29 00:00:00 18.4 130.8 18.4 131.1 18.4 131.0 18.4 131.0
2003-11-29 06:00:00 19.2 130.5 19.2 130.9 19.2 130.9 19.2 130.9
2003-11-29 12:00:00 20.1 130.9 19.9 131.0 20.0 131.0 19.9 131.0
2003-11-29 18:00:00 21.1 131.7 20.8 131.8 20.8 131.8 20.8 131.6
2003-11-30 00:00:00 22.1 132.6 21.8 132.6 21.8 132.6 21.8 132.5
2003-11-30 06:00:00 23.3 134.0 23.2 134.0 23.0 133.8 23.0 133.7
2003-11-30 12:00:00 24.6 135.4 24.7 135.7 24.4 135.5 24.6 135.5
2003-11-30 18:00:00 25.8 137.5 26.1 137.6 26.1 137.6 26.0 137.5
2003-12-01 00:00:00 27.7 138.8 26.9 139.1 27.1 139.1 27.0 139.0
2003-12-01 06:00:00 29.6 140.0 29.3 140.3 29.3 140.3 29.3 140.2
2003-12-01 12:00:00 30.9 142.0 30.9 141.7 30.9 141.7 30.9 141.7
2003-12-01 18:00:00 32.2 144.3 32.2 144.1 32.2 144.1 32.2 144.1
2003-12-02 00:00:00 34.0 146.3 34.3 146.1 34.4 146.1
2003-12-02 06:00:00 35.7 148.6 35.5 147.4
2003-12-02 12:00:00 36.7 149.7
jtwc_wp tokyo cma hko
2003-12-02 18:00:00 38.0 152.7
2003-12-03 00:00:00 39.3 156.2
2003-12-03 06:00:00 40.9 159.8

top of pageTrack Data:Intensity

jtwc_wp tokyo cma hko
Date Wind Pres Wind Pres Wind Pres Wind Pres
2003-11-14 12:00:00 20. 1004.
2003-11-14 18:00:00 20. 1004.
2003-11-15 00:00:00 20. 1004.
2003-11-15 06:00:00 20. 1004.
2003-11-15 12:00:00 20. 1004.
2003-11-15 18:00:00 15. 1006.
2003-11-16 00:00:00 15. 1006.
2003-11-16 06:00:00 15. 1006.
2003-11-16 12:00:00 15. 1006.
2003-11-16 18:00:00 15. 1006.
2003-11-17 00:00:00 15. 1006.
2003-11-17 06:00:00 15. 1006.
2003-11-17 12:00:00 15. 1006.
2003-11-17 18:00:00 15. 1006.
2003-11-18 00:00:00 20. 1004.
2003-11-18 06:00:00 20. 1004.
2003-11-18 12:00:00 25. 1002. 1004. 23. 1002.
2003-11-18 18:00:00 25. 1002. 1002. 23. 1002.
2003-11-19 00:00:00 25. 1002. 1002. 23. 1002.
2003-11-19 06:00:00 25. 1002. 1002. 23. 1002.
2003-11-19 12:00:00 25. 1004. 1002. 23. 1002. 25. 1000.
2003-11-19 18:00:00 25. 1002. 1002. 23. 1002. 25. 1000.
2003-11-20 00:00:00 25. 1002. 1004. 23. 1002. 25. 1000.
2003-11-20 06:00:00 30. 1000. 1002. 23. 1002. 25. 1000.
2003-11-20 12:00:00 30. 1000. 1004. 29. 1000. 30. 998.
jtwc_wp tokyo cma hko
2003-11-20 18:00:00 35. 997. 1000. 29. 1000. 30. 998.
2003-11-21 00:00:00 35. 997. 1000. 29. 1000. 30. 998.
2003-11-21 06:00:00 35. 997. 1000. 29. 1000. 30. 998.
2003-11-21 12:00:00 40. 994. 35. 998. 35. 998. 35. 994.
2003-11-21 18:00:00 45. 991. 45. 992. 39. 995. 40. 990.
2003-11-22 00:00:00 60. 980. 50. 985. 49. 990. 50. 980.
2003-11-22 06:00:00 65. 976. 50. 985. 49. 985. 55. 975.
2003-11-22 12:00:00 70. 972. 50. 980. 54. 980. 55. 975.
2003-11-22 18:00:00 75. 967. 50. 980. 54. 980. 60. 970.
2003-11-23 00:00:00 80. 963. 55. 975. 58. 975. 65. 965.
2003-11-23 06:00:00 85. 958. 60. 970. 58. 975. 70. 960.
2003-11-23 12:00:00 90. 954. 70. 965. 68. 965. 75. 955.
2003-11-23 18:00:00 95. 949. 75. 960. 68. 965. 75. 955.
2003-11-24 00:00:00 95. 949. 75. 955. 68. 965. 75. 955.
2003-11-24 06:00:00 95. 949. 75. 955. 68. 965. 75. 955.
2003-11-24 12:00:00 100. 944. 75. 955. 68. 960. 75. 955.
2003-11-24 18:00:00 105. 938. 75. 955. 78. 960. 80. 950.
2003-11-25 00:00:00 105. 938. 75. 955. 78. 960. 85. 945.
2003-11-25 06:00:00 115. 927. 80. 950. 78. 960. 90. 940.
2003-11-25 12:00:00 115. 927. 80. 945. 78. 960. 95. 935.
2003-11-25 18:00:00 120. 922. 85. 940. 87. 950. 100. 930.
2003-11-26 00:00:00 130. 910. 90. 935. 87. 950. 110. 920.
2003-11-26 06:00:00 140. 898. 95. 925. 97. 940. 120. 910.
2003-11-26 12:00:00 140. 898. 100. 920. 97. 940. 125. 905.
jtwc_wp tokyo cma hko
2003-11-26 18:00:00 140. 898. 100. 915. 97. 940. 125. 905.
2003-11-27 00:00:00 140. 898. 100. 915. 107. 930. 125. 905.
2003-11-27 06:00:00 140. 898. 100. 915. 117. 920. 125. 905.
2003-11-27 12:00:00 145. 892. 100. 915. 117. 920. 125. 905.
2003-11-27 18:00:00 135. 904. 100. 915. 117. 920. 120. 910.
2003-11-28 00:00:00 135. 904. 100. 920. 107. 930. 115. 915.
2003-11-28 06:00:00 135. 904. 95. 925. 97. 940. 115. 915.
2003-11-28 12:00:00 135. 904. 90. 930. 97. 950. 115. 915.
2003-11-28 18:00:00 125. 916. 85. 935. 87. 950. 105. 925.
2003-11-29 00:00:00 115. 927. 85. 935. 87. 950. 100. 930.
2003-11-29 06:00:00 105. 938. 85. 940. 87. 950. 95. 935.
2003-11-29 12:00:00 105. 938. 85. 940. 87. 950. 95. 935.
2003-11-29 18:00:00 100. 944. 85. 940. 87. 950. 90. 940.
2003-11-30 00:00:00 100. 944. 80. 945. 87. 950. 85. 945.
2003-11-30 06:00:00 100. 944. 80. 945. 78. 960. 80. 950.
2003-11-30 12:00:00 95. 949. 80. 945. 78. 960. 75. 955.
2003-11-30 18:00:00 80. 963. 80. 950. 68. 965. 70. 960.
2003-12-01 00:00:00 70. 972. 70. 960. 58. 970. 65. 965.
2003-12-01 06:00:00 65. 976. 60. 970. 54. 980. 60. 970.
2003-12-01 12:00:00 60. 980. 60. 975. 49. 985. 55. 975.
2003-12-01 18:00:00 60. 980. 60. 975. 45. 988. 50. 980.
2003-12-02 00:00:00 55. 984. 55. 980. 45. 985.
2003-12-02 06:00:00 50. 987. 55. 980.
2003-12-02 12:00:00 980.
jtwc_wp tokyo cma hko
2003-12-02 18:00:00 980.
2003-12-03 00:00:00 980.
2003-12-03 06:00:00 980.

top of page Links to source data

Source Source file Format
jtwc_wp bwp262003.txt ATCF
tokyo bst_all.txt:Line=53021:LUPIT:321 JMA text table
cma CH2003BST.txt:Storm=24:Lupit CMA text table
hko tc-besttrack-data.txt:Line=30372:LUPIT HKO Text table